Meskill, Texas
Current Conditions -  °F | °C
As of 4:52 PM on Thursday 27 Nov 2014 (Local Time) from KGLS Reporting Station
Clear Clear  
Wind Chill: 59°   Ceiling: Unl
Heat Index: 59°   Visibility: 10mi
Dew Point: 43°   Wind: 3mph
Humidity: 55%   Direction: 10°N
Pressure: 30.43"   Gusts: NA
Location:  29.3796°N, 94.9168°W
Report Text: KGLS 272252Z 01003KT 10SM CLR 15/06 A3043 RMK AO2 SLP304 T01500061
Loading
Personal Weather Stations






























Interactive Weather Map New forecast layout! Learn more

10-Day Weather Forecast

Advertisements
Track Severe Weather on mobile